ADDS METAR Data INFO
IDs: Format: Raw Decoded Include TAF

Data at: 0216 UTC 14 Dec 2017

KLIT 140153Z 28006KT 10SM CLR 11/M02 A2986 RMK AO2 SLP114 T01111022
KLIT 140053Z 24003KT 10SM CLR 13/M03 A2983 RMK AO2 SLP106 T01331033
KLIT 132353Z 25006KT 10SM FEW250 14/M04 A2983 RMK AO2 SLP103 T01391039 10178 20128 53007
KLIT 132253Z 24012G21KT 10SM FEW150 SCT250 17/M04 A2980 RMK AO2 SLP095 T01671044
KLIT 132153Z 25015G21KT 10SM FEW250 18/M05 A2981 RMK AO2 SLP097 T01781050
KLIT 132053Z 24012G20KT 10SM FEW250 17/M04 A2980 RMK AO2 SLP095 T01721044 56030
KLIT 131953Z 23014G22KT 10SM FEW250 16/M04 A2982 RMK AO2 SLP102 T01611044
KLIT 131853Z 22018KT 10SM FEW250 14/M04 A2987 RMK AO2 PK WND 22027/1755 SLP118 T01441044
KLIT 131753Z 23018G28KT 10SM CLR 13/M05 A2989 RMK AO2 PK WND 23028/1750 SLP126 T01281050 10128 21028 58038
KLIT 131653Z 22014KT 10SM CLR 11/M07 A2995 RMK AO2 PK WND 21026/1616 SLP144 T01061067
KLIT 131553Z 21019G24KT 10SM CLR 08/M08 A2999 RMK AO2 SLP157 T00781083
KLIT 131453Z 23014KT 10SM CLR 04/M07 A3001 RMK AO2 SLP164 T00441072 58017
KLIT 131353Z 16005KT 10SM CLR M01/M04 A3003 RMK AO2 SLP172 T10111044
KLIT 131253Z 00000KT 10SM CLR M03/M06 A3004 RMK AO2 SLP177 T10281061
KLIT 131153Z 26004KT 10SM CLR M02/M06 A3006 RMK AO2 SLP182 T10171061 10017 21028 56021
KLIT 131053Z 22003KT 10SM CLR M02/M06 A3007 RMK AO2 SLP188 T10171061
KLIT 130953Z 25006KT 10SM CLR M01/M06 A3010 RMK AO2 SLP195 T10111061
KLIT 130853Z 22004KT 10SM CLR M02/M05 A3012 RMK AO2 SLP203 T10171050 56017
KLIT 130753Z 21003KT 10SM CLR M01/M05 A3014 RMK AO2 SLP208 T10061050
KLIT 130653Z 00000KT 10SM CLR M01/M07 A3015 RMK AO2 SLP213 T10111072
KLIT 130553Z 23005KT 10SM CLR 01/M07 A3017 RMK AO2 SLP219 T00111067 10072 20006 401220006 55003
KLIT 130453Z 00000KT 10SM CLR 02/M08 A3016 RMK AO2 SLP217 T00221083
KLIT 130353Z 26004KT 10SM CLR 02/M08 A3018 RMK AO2 SLP221 T00221083
KLIT 130253Z 23005KT 10SM CLR 05/M08 A3018 RMK AO2 SLP222 T00501078 58004
KLIT 130153Z 24004KT 10SM CLR 05/M08 A3019 RMK AO2 SLP227 T00501078
KLIT 130053Z 25004KT 10SM CLR 06/M09 A3019 RMK AO2 SLP228 T00611089
KLIT 122353Z 25005KT 10SM CLR 07/M09 A3019 RMK AO2 SLP226 T00721094 10111 20067 56007
KLIT 122253Z 29006KT 10SM CLR 08/M10 A3019 RMK AO2 SLP227 T00831100
KLIT 122153Z 28010KT 10SM CLR 10/M09 A3020 RMK AO2 SLP230 T01001089
KLIT 122053Z 29012KT 10SM FEW250 11/M11 A3021 RMK AO2 SLP232 T01111106 56018
KLIT 121953Z 29010KT 10SM CLR 11/M09 A3021 RMK AO2 SLP234 T01061094
KLIT 121853Z 29013KT 10SM FEW250 11/M08 A3024 RMK AO2 SLP242 T01061083
KLIT 121753Z 33010KT 10SM CLR 11/M08 A3026 RMK AO2 SLP250 T01061078 10106 20050 58004
KLIT 121653Z 32012KT 10SM CLR 08/M07 A3029 RMK AO2 SLP259 T00831072
KLIT 121553Z 34016G20KT 10SM CLR 08/M07 A3029 RMK AO2 SLP258 T00781067
KLIT 121453Z 32017G23KT 10SM CLR 06/M04 A3028 RMK AO2 SLP255 T00611044 51026